Bloomington Monroe County Airport

Current Flights

Departures
Number Departure To Airline
 N223TX 20:00 +461  Columbus Private owner
Arrivals
Number Arrival From Airline
Info
Name: Bloomington Monroe County Airport
Identifier:  BMG/KBMG
Local Time:  19. Jun 03:40
City
Bloomington
  United States

Flights per Day
4 flights
Distance: 674km (419mi)
Punctuality
66% (1 flights per day delayed)
Delay Average: 1 minutes
Current Weather
 19 C (Humidity: 100%)
  0kt (0km/h / 0mph) from 0°
  11km (7 mi.)
 
 METAR KBMG 190709Z AUTO 00000KT 7SM CLR 19/19 A2982 RMK AO2 T01940194

Current Delays

Departures
N/A
Arrivals
N/A

Destinations

Top Destinations
Airport Flights
per week
Seats
per week
  Louisville (LOU) 1 - 0 0
  Indianapolis (IND) 1 - 0 0
  Columbus (CLU) 0 - 0 0
  Wichita (ICT) 0 - 0 0
  Somerset (SME) 0 - 0 0
  Lexington (LEX) 0 - 0 0
  Lafayette (LAF) 0 - 0 0
  South Bend (SBN) 0 - 0 0
  White Plains (HPN) 0 - 0 0
  Denver (APA) 0 - 0 0

Airlines & Planes

Top Airlines
Airline Flights
per Day
Seats
per Day
Jet Charter Inc ( Franklin Lakes Nj ) 1 -
  Novair 0 -
  National Airlines 0 -
  Flybe Nordic 0 -
  Nolinor Aviation 0 -
Nordwind Airlines 0 -
  Elite Airways 0 3
Jet Linx Aviation 0 -
Flight Options 0 -
Red Wing Aeroplane 0 -
Top Plane Types
Model Flights Seats
Cirrus SR22 0.3/day - 0
Beech B200 Super King Air 0.2/day - 0
Beech E90 King Air 0.2/day - 0
Cessna C525 0.2/day - 0
Beech 58 0.1/day - 0
Cessna C25B 0.1/day - 0
Cessna C82S 0.1/day - 0
Piper PA28-181 0.1/day - 0